Time;durP1;ratioP1;P1;durP2;ratioP2;P2;SDS_P1;SDS_P2;PMS_P1;PMS_P2;Temp;Humidity;BMP_temperature;BMP_pressure;BME280_temperature;BME280_humidity;BME280_pressure;Samples;Min_cycle;Max_cycle;Signal;HPM_P1;HPM_P2
2023/08/09 00:02:19;;;;;;;2.97;2.47;;;;;;;19.23;76.23;100831.41;4970744;28;20033;-80
2023/08/09 00:04:45;;;;;;;2.22;1.92;;;;;;;19.32;76.05;100855.75;4971139;28;20045;-81
2023/08/09 00:07:10;;;;;;;2.88;2.55;;;;;;;19.32;75.61;100858.50;4970492;28;20027;-80
2023/08/09 00:09:36;;;;;;;7.22;2.60;;;;;;;19.22;75.17;100841.47;4970681;28;20035;-79
2023/08/09 00:12:03;;;;;;;3.17;2.25;;;;;;;19.20;75.57;100857.16;4970485;28;20035;-81
2023/08/09 00:14:28;;;;;;;2.20;2.00;;;;;;;19.25;75.57;100860.22;4970736;28;20118;-81
2023/08/09 00:16:54;;;;;;;3.95;1.83;;;;;;;19.25;75.52;100862.94;4970691;28;20106;-80
2023/08/09 00:19:19;;;;;;;16.00;2.88;;;;;;;19.19;75.57;100851.88;4970895;28;20104;-80
2023/08/09 00:21:46;;;;;;;8.13;2.67;;;;;;;19.27;75.74;100865.47;4970622;28;20035;-79
2023/08/09 00:24:12;;;;;;;2.28;2.03;;;;;;;19.36;75.95;100867.16;4970530;28;20031;-79
2023/08/09 00:26:37;;;;;;;3.97;2.33;;;;;;;19.37;75.67;100866.97;4970485;28;20061;-80
2023/08/09 00:29:03;;;;;;;4.35;2.08;;;;;;;19.34;75.89;100866.47;4974125;28;20031;-79
2023/08/09 00:31:28;;;;;;;6.05;2.35;;;;;;;19.28;75.56;100861.72;4974746;28;20026;-79
2023/08/09 00:33:54;;;;;;;6.55;2.05;;;;;;;19.27;75.92;100869.06;4974568;28;20065;-79
2023/08/09 00:36:19;;;;;;;6.10;1.88;;;;;;;19.28;75.53;100857.13;4974430;28;20050;-79
2023/08/09 00:38:44;;;;;;;11.52;3.00;;;;;;;19.33;75.65;100865.63;4974802;28;20035;-80
2023/08/09 00:41:10;;;;;;;1.73;1.63;;;;;;;19.38;75.56;100868.69;4974321;28;20031;-79
2023/08/09 00:43:36;;;;;;;4.45;2.22;;;;;;;19.30;75.72;100859.66;4973999;28;20034;-80
2023/08/09 00:46:02;;;;;;;3.40;2.25;;;;;;;19.34;75.66;100861.88;4974050;28;20034;-79
2023/08/09 00:48:27;;;;;;;4.15;2.00;;;;;;;19.39;75.83;100869.53;4974692;28;20027;-79
2023/08/09 00:50:53;;;;;;;3.83;2.15;;;;;;;19.35;75.83;100857.28;4974097;28;20450;-79
2023/08/09 00:53:20;;;;;;;2.42;1.95;;;;;;;19.43;75.29;100871.78;4974526;28;20034;-79
2023/08/09 00:55:46;;;;;;;3.25;1.80;;;;;;;19.39;75.52;100864.94;4974217;28;20491;-79
2023/08/09 00:58:11;;;;;;;5.55;2.25;;;;;;;19.33;75.03;100852.00;4974547;28;20019;-79
2023/08/09 01:00:37;;;;;;;7.78;2.33;;;;;;;19.30;75.10;100860.53;4974029;28;20107;-80
2023/08/09 01:03:03;;;;;;;4.10;2.17;;;;;;;19.31;75.52;100864.09;4974024;28;20494;-80
2023/08/09 01:05:51;;;;;;;5.38;2.63;;;;;;;19.25;75.94;100862.06;4973830;28;20038;-80
2023/08/09 01:08:34;;;;;;;10.57;2.40;;;;;;;19.17;75.81;100859.38;4973832;28;20033;-79
2023/08/09 01:11:10;;;;;;;3.83;1.90;;;;;;;19.25;75.48;100879.28;4957180;28;20042;-81
2023/08/09 01:13:40;;;;;;;3.30;2.05;;;;;;;19.15;76.02;100872.31;4973564;28;20030;-80
2023/08/09 01:16:07;;;;;;;2.83;1.70;;;;;;;19.20;76.13;100880.84;4973758;28;20036;-80
2023/08/09 01:18:35;;;;;;;1.77;1.55;;;;;;;19.14;76.55;100870.66;4973730;28;20063;-79
2023/08/09 01:21:01;;;;;;;4.93;2.58;;;;;;;19.12;75.91;100872.66;4973240;28;20049;-80
2023/08/09 01:23:41;;;;;;;2.78;2.40;;;;;;;19.00;76.24;100858.56;4973805;28;20039;-80
2023/08/09 01:26:06;;;;;;;1.92;1.70;;;;;;;19.01;76.63;100866.59;4973131;28;20172;-80
2023/08/09 01:28:32;;;;;;;2.33;1.80;;;;;;;18.99;77.01;100870.47;4973658;28;20105;-79
2023/08/09 01:30:58;;;;;;;2.45;1.70;;;;;;;18.91;77.75;100862.31;4973148;28;20027;-79
2023/08/09 01:33:25;;;;;;;2.55;1.63;;;;;;;18.86;77.33;100871.03;4973182;28;20030;-79
2023/08/09 01:36:02;;;;;;;2.25;1.65;;;;;;;18.81;77.66;100865.22;4973341;28;20113;-79
2023/08/09 01:38:37;;;;;;;2.53;1.58;;;;;;;18.76;77.33;100850.44;4973621;28;20027;-79
2023/08/09 01:41:05;;;;;;;5.63;1.80;;;;;;;18.82;78.08;100856.03;4973943;28;20057;-79
2023/08/09 01:43:31;;;;;;;3.47;1.75;;;;;;;18.80;77.98;100869.00;4973497;28;20027;-79
2023/08/09 01:45:59;;;;;;;2.08;1.85;;;;;;;18.81;77.28;100858.91;4973343;28;20506;-79
2023/08/09 01:48:24;;;;;;;2.08;1.83;;;;;;;18.78;77.97;100875.63;4973005;28;20037;-80
2023/08/09 01:50:50;;;;;;;1.92;1.52;;;;;;;18.76;77.67;100864.06;4973343;28;20038;-79
2023/08/09 01:53:16;;;;;;;2.83;1.70;;;;;;;18.77;77.91;100871.22;4973394;28;20459;-79
2023/08/09 01:55:41;;;;;;;1.50;1.40;;;;;;;18.81;78.05;100878.00;4973788;28;20034;-79
2023/08/09 01:58:07;;;;;;;3.05;1.65;;;;;;;18.73;77.96;100888.91;4973523;28;20018;-79
2023/08/09 02:00:33;;;;;;;6.20;1.98;;;;;;;18.63;78.23;100888.22;4973376;28;20042;-80
2023/08/09 02:02:58;;;;;;;5.53;1.85;;;;;;;18.67;78.45;100889.59;4973630;28;20031;-79
2023/08/09 02:05:24;;;;;;;2.35;1.95;;;;;;;18.68;77.81;100892.16;4973824;28;20035;-79
2023/08/09 02:07:50;;;;;;;5.88;1.60;;;;;;;18.68;79.16;100888.59;4973243;28;20542;-79
2023/08/09 02:10:16;;;;;;;1.90;1.67;;;;;;;18.68;77.72;100883.13;4972232;28;20041;-81
2023/08/09 02:12:47;;;;;;;2.67;1.83;;;;;;;18.69;78.41;100890.28;4973606;28;20030;-82
2023/08/09 02:15:13;;;;;;;1.92;1.45;;;;;;;18.67;78.82;100889.59;4973323;28;20494;-82
2023/08/09 02:17:38;;;;;;;4.47;1.80;;;;;;;18.56;77.62;100889.94;4973668;28;20058;-81
2023/08/09 02:20:04;;;;;;;3.08;1.90;;;;;;;18.51;78.11;100885.00;4973878;28;20035;-81
2023/08/09 02:22:36;;;;;;;8.00;1.55;;;;;;;18.50;78.18;100888.72;4973615;28;20126;-81
2023/08/09 02:25:03;;;;;;;11.43;1.83;;;;;;;18.51;77.82;100898.63;4972879;28;20547;-81
2023/08/09 02:27:29;;;;;;;1.88;1.70;;;;;;;18.50;78.18;100890.63;4972873;28;20093;-81
2023/08/09 02:29:55;;;;;;;3.80;1.90;;;;;;;18.44;78.26;100892.97;4973085;28;20046;-80
2023/08/09 02:32:20;;;;;;;1.83;1.63;;;;;;;18.43;77.99;100898.59;4972495;28;20483;-80
2023/08/09 02:34:46;;;;;;;7.07;2.25;;;;;;;18.44;79.06;100900.28;4972775;28;20035;-80
2023/08/09 02:37:11;;;;;;;2.95;1.60;;;;;;;18.41;78.22;100908.78;4973480;28;20030;-80
2023/08/09 02:39:37;;;;;;;8.02;2.63;;;;;;;18.45;78.88;100902.84;4972174;28;20093;-79
2023/08/09 02:42:03;;;;;;;10.80;2.08;;;;;;;18.33;78.47;100890.56;4976139;28;20033;-79
2023/08/09 02:44:29;;;;;;;4.13;1.80;;;;;;;18.36;78.00;100895.69;4977141;28;20035;-80
2023/08/09 02:46:55;;;;;;;6.22;1.45;;;;;;;18.35;77.96;100902.13;4980568;28;20049;-82
2023/08/09 02:49:20;;;;;;;5.35;1.73;;;;;;;18.31;78.88;100887.19;4984677;28;20046;-80
2023/08/09 02:51:46;;;;;;;5.25;1.67;;;;;;;18.25;78.97;100896.03;4980849;28;20097;-81
2023/08/09 02:54:11;;;;;;;2.60;1.40;;;;;;;18.26;77.96;100903.16;4974380;28;20468;-79
2023/08/09 02:56:37;;;;;;;4.88;1.58;;;;;;;18.16;77.89;100902.47;4973985;28;20422;-79
2023/08/09 02:59:02;;;;;;;10.63;2.35;;;;;;;18.17;77.64;100901.44;4973829;28;20039;-80
2023/08/09 03:01:29;;;;;;;2.30;2.08;;;;;;;18.17;77.48;100909.59;4972813;28;20422;-79
2023/08/09 03:03:55;;;;;;;4.57;2.00;;;;;;;18.06;77.48;100893.59;4972394;28;20117;-80
2023/08/09 03:06:23;;;;;;;6.55;1.73;;;;;;;18.13;77.97;100908.25;4972624;28;20114;-80
2023/08/09 03:08:50;;;;;;;2.33;1.35;;;;;;;18.17;77.22;100914.19;4972812;28;20026;-79
2023/08/09 03:11:18;;;;;;;5.90;1.63;;;;;;;18.15;77.24;100924.41;4972512;28;20074;-79
2023/08/09 03:13:43;;;;;;;11.48;1.92;;;;;;;18.11;77.04;100915.72;4972081;28;20550;-81
2023/08/09 03:16:09;;;;;;;2.15;1.50;;;;;;;18.13;77.50;100923.72;4972229;28;20031;-79
2023/08/09 03:18:34;;;;;;;5.53;1.98;;;;;;;18.21;78.00;100921.00;4972145;28;20035;-79
2023/08/09 03:21:00;;;;;;;8.23;2.03;;;;;;;18.24;77.44;100931.56;4971886;28;20038;-79
2023/08/09 03:23:25;;;;;;;4.63;1.63;;;;;;;18.19;78.31;100923.91;4971318;28;20035;-78
2023/08/09 03:25:51;;;;;;;6.47;1.80;;;;;;;18.25;77.34;100938.72;4971459;28;20415;-78
2023/08/09 03:28:16;;;;;;;9.63;1.98;;;;;;;18.23;76.45;100930.72;4971268;28;20023;-78
2023/08/09 03:30:41;;;;;;;12.25;5.32;;;;;;;18.13;77.19;100921.00;4971136;28;20041;-80
2023/08/09 03:33:07;;;;;;;6.28;3.75;;;;;;;18.23;77.23;100930.72;4970946;28;20031;-79
2023/08/09 03:35:32;;;;;;;6.68;2.08;;;;;;;18.18;77.72;100933.09;4971184;28;20034;-79
2023/08/09 03:37:58;;;;;;;3.38;1.70;;;;;;;18.21;77.49;100942.78;4986166;28;20066;-80
2023/08/09 03:40:23;;;;;;;1.90;1.55;;;;;;;18.10;78.15;100935.81;4970641;28;20110;-80
2023/08/09 03:42:49;;;;;;;5.03;2.20;;;;;;;18.15;77.57;100933.44;4970769;28;20410;-79
2023/08/09 03:45:14;;;;;;;17.27;2.78;;;;;;;18.17;77.55;100939.53;4968234;28;20046;-80
2023/08/09 03:47:40;;;;;;;5.82;2.03;;;;;;;18.10;77.86;100938.53;4970742;28;20479;-79
2023/08/09 03:50:06;;;;;;;1.77;1.45;;;;;;;18.13;77.96;100951.81;4967967;28;20070;-79
2023/08/09 03:52:32;;;;;;;6.13;2.15;;;;;;;18.07;78.49;100947.00;4968247;28;20043;-79
2023/08/09 03:54:58;;;;;;;4.80;2.22;;;;;;;18.11;78.52;100953.81;4967991;28;20046;-77
2023/08/09 03:57:23;;;;;;;15.88;2.67;;;;;;;18.12;79.66;100944.66;4967723;28;20594;-79
2023/08/09 03:59:52;;;;;;;10.82;2.95;;;;;;;18.09;79.42;100944.97;4967603;28;20132;-78
2023/08/09 04:02:17;;;;;;;15.50;2.75;;;;;;;18.14;78.79;100953.50;4967480;28;20062;-78
2023/08/09 04:04:43;;;;;;;8.25;2.88;;;;;;;18.21;78.59;100949.09;4967988;28;20121;-78
2023/08/09 04:07:09;;;;;;;4.82;2.63;;;;;;;18.18;79.06;100944.00;4967708;28;20026;-78
2023/08/09 04:09:35;;;;;;;10.52;4.53;;;;;;;18.24;79.24;100962.38;4968166;28;20038;-78
2023/08/09 04:12:01;;;;;;;23.23;4.85;;;;;;;18.33;78.85;100963.25;4967862;28;20038;-79
2023/08/09 04:14:27;;;;;;;17.15;2.67;;;;;;;18.36;78.74;100965.63;4967703;28;20554;-78
2023/08/09 04:16:52;;;;;;;9.73;3.78;;;;;;;18.42;79.05;100968.56;4967676;28;20034;-79
2023/08/09 04:19:18;;;;;;;12.25;2.95;;;;;;;18.53;78.94;100972.00;4967533;28;20459;-77
2023/08/09 04:21:44;;;;;;;14.27;3.35;;;;;;;18.54;78.12;100968.25;4969625;28;20466;-79
2023/08/09 04:24:12;;;;;;;18.73;4.18;;;;;;;18.60;78.27;100975.75;4969938;28;20027;-78
2023/08/09 04:26:38;;;;;;;16.98;3.47;;;;;;;18.66;77.58;100975.06;4970194;28;20454;-78
2023/08/09 04:29:03;;;;;;;22.67;3.17;;;;;;;18.66;77.07;100964.19;4970265;28;20034;-78
2023/08/09 04:31:29;;;;;;;15.73;4.28;;;;;;;18.81;79.01;100978.84;4970258;28;20038;-77
2023/08/09 04:33:54;;;;;;;5.32;2.10;;;;;;;18.86;77.45;100981.94;4970180;28;20133;-79
2023/08/09 04:36:20;;;;;;;6.63;2.55;;;;;;;18.91;77.91;100979.53;4970307;28;20027;-80
2023/08/09 04:38:46;;;;;;;15.18;3.60;;;;;;;18.99;77.21;100976.78;4970111;28;20034;-77
2023/08/09 04:41:12;;;;;;;6.22;1.73;;;;;;;19.00;76.57;100962.16;4969712;28;20027;-79
2023/08/09 04:43:46;;;;;;;28.80;3.50;;;;;;;19.19;76.11;100983.63;4970237;28;20034;-78
2023/08/09 04:46:12;;;;;;;16.42;2.60;;;;;;;19.17;75.70;100974.78;4969978;28;20752;-77
2023/08/09 04:48:39;;;;;;;6.93;2.05;;;;;;;19.28;74.38;100990.78;4970115;28;20036;-81
2023/08/09 04:51:05;;;;;;;30.92;3.97;;;;;;;19.39;74.39;100990.44;4984881;28;20410;-78
2023/08/09 04:53:31;;;;;;;16.83;3.53;;;;;;;19.50;74.11;100987.38;4969775;28;20030;-78
2023/08/09 04:55:56;;;;;;;21.73;2.63;;;;;;;19.59;73.95;100996.38;4969952;28;20031;-80
2023/08/09 04:58:22;;;;;;;13.15;2.08;;;;;;;19.67;73.30;100981.84;4969770;28;20097;-77
2023/08/09 05:00:47;;;;;;;11.82;3.03;;;;;;;19.89;75.76;100992.88;4969738;28;20082;-79
2023/08/09 05:03:13;;;;;;;16.17;3.22;;;;;;;19.80;74.87;100966.63;4970012;28;20031;-78
2023/08/09 05:05:38;;;;;;;11.13;2.42;;;;;;;19.93;73.43;100977.84;4970580;28;20054;-79
2023/08/09 05:08:04;;;;;;;13.60;2.67;;;;;;;20.07;72.84;100984.44;4969732;28;20475;-78
2023/08/09 05:10:29;;;;;;;25.60;5.25;;;;;;;20.13;71.46;100983.72;4970023;28;20406;-78
2023/08/09 05:12:55;;;;;;;15.10;3.00;;;;;;;20.12;70.19;100982.00;4969405;28;20565;-77
2023/08/09 05:15:20;;;;;;;8.45;3.05;;;;;;;20.27;69.86;100984.91;4973109;28;20122;-79
2023/08/09 05:17:46;;;;;;;49.33;3.47;;;;;;;20.46;71.30;100990.75;4973361;28;20081;-78
2023/08/09 05:20:11;;;;;;;17.52;2.35;;;;;;;20.47;70.01;100991.59;4973051;28;20026;-77
2023/08/09 05:22:37;;;;;;;34.88;3.35;;;;;;;20.51;68.28;100998.41;4973518;28;20035;-78
2023/08/09 05:25:03;;;;;;;4.57;1.90;;;;;;;20.58;67.79;101004.84;4973192;28;20054;-80
2023/08/09 05:27:28;;;;;;;39.90;4.95;;;;;;;20.61;68.36;100994.41;4973631;28;20081;-77
2023/08/09 05:29:53;;;;;;;50.50;8.00;;;;;;;20.75;67.76;101001.00;4973000;28;20093;-77
2023/08/09 05:32:21;;;;;;;10.30;2.05;;;;;;;20.83;67.16;101000.91;4973299;28;20027;-79
2023/08/09 05:34:46;;;;;;;4.00;1.67;;;;;;;20.96;66.81;100994.84;4973419;28;20047;-77
2023/08/09 05:37:12;;;;;;;7.88;2.70;;;;;;;21.03;66.33;100988.47;4973087;28;20026;-80
2023/08/09 05:39:37;;;;;;;33.60;5.20;;;;;;;21.12;65.47;101002.97;4973349;28;20034;-81
2023/08/09 05:42:03;;;;;;;11.55;3.00;;;;;;;21.18;67.29;100996.75;4972944;28;20023;-78
2023/08/09 05:44:29;;;;;;;10.50;2.55;;;;;;;21.26;65.88;101007.63;4954551;28;20047;-78
2023/08/09 05:46:54;;;;;;;7.43;2.30;;;;;;;21.33;67.31;101010.47;4972796;28;20039;-79
2023/08/09 05:49:20;;;;;;;4.13;2.38;;;;;;;21.38;66.68;101013.47;4973000;28;20085;-79
2023/08/09 05:51:46;;;;;;;14.57;2.50;;;;;;;21.37;64.90;101011.81;4973004;28;20170;-79
2023/08/09 05:54:11;;;;;;;14.18;2.63;;;;;;;21.29;63.92;100989.97;4972635;28;20030;-78
2023/08/09 05:56:37;;;;;;;7.07;2.83;;;;;;;21.50;65.69;101015.59;4972800;28;20513;-77
2023/08/09 05:59:04;;;;;;;23.92;4.18;;;;;;;21.58;64.40;101015.53;4972580;28;20554;-78
2023/08/09 06:01:29;;;;;;;11.00;2.47;;;;;;;21.71;65.42;101010.22;4972407;28;20053;-78
2023/08/09 06:03:55;;;;;;;9.05;2.35;;;;;;;21.77;63.08;101010.53;4972336;28;20689;-80
2023/08/09 06:06:21;;;;;;;6.45;2.22;;;;;;;21.74;62.77;101014.50;4972395;28;20031;-76
2023/08/09 06:08:46;;;;;;;11.10;2.75;;;;;;;21.86;60.69;101018.47;4972108;28;20078;-77
2023/08/09 06:11:13;;;;;;;6.97;2.33;;;;;;;21.88;61.72;101015.53;4972392;28;20037;-77
2023/08/09 06:13:38;;;;;;;10.68;2.35;;;;;;;21.90;60.40;101010.75;4972309;28;20019;-78
2023/08/09 06:16:04;;;;;;;17.88;2.17;;;;;;;21.92;60.50;101022.38;4972157;28;20065;-76
2023/08/09 06:18:29;;;;;;;7.97;1.70;;;;;;;21.92;61.39;101011.44;4972037;28;20027;-76
2023/08/09 06:20:55;;;;;;;14.20;3.90;;;;;;;21.91;59.27;100999.63;4971837;28;20030;-78
2023/08/09 06:23:20;;;;;;;23.52;5.32;;;;;;;21.91;59.37;100998.75;4971961;28;20086;-79
2023/08/09 06:25:47;;;;;;;6.97;2.58;;;;;;;22.06;61.17;101010.56;4972005;28;20415;-77
2023/08/09 06:28:13;;;;;;;12.15;1.30;;;;;;;22.05;60.09;100995.16;4970768;28;20033;-77
2023/08/09 06:30:39;;;;;;;3.42;1.67;;;;;;;22.18;59.14;101006.28;4971766;28;20031;-77
2023/08/09 06:33:05;;;;;;;19.80;2.47;;;;;;;22.18;59.39;100995.34;4972156;28;20097;-77
2023/08/09 06:35:31;;;;;;;7.07;2.42;;;;;;;22.30;58.85;100998.44;4971564;28;20061;-79
2023/08/09 06:37:56;;;;;;;7.43;2.50;;;;;;;22.40;57.39;100983.41;4971901;28;20129;-78
2023/08/09 06:40:22;;;;;;;12.98;3.10;;;;;;;22.40;58.99;100988.03;4971848;28;20752;-77
2023/08/09 06:42:47;;;;;;;19.20;5.20;;;;;;;22.50;57.59;100999.53;4972204;28;20030;-78
2023/08/09 06:45:13;;;;;;;5.63;1.55;;;;;;;22.37;56.45;100969.22;4972450;28;20643;-77
2023/08/09 06:47:38;;;;;;;13.55;3.42;;;;;;;22.50;56.44;100985.84;4972345;28;20037;-78
2023/08/09 06:50:04;;;;;;;17.10;2.47;;;;;;;22.62;56.40;100993.34;4972117;28;20042;-78
2023/08/09 06:52:36;;;;;;;18.02;4.65;;;;;;;22.69;57.58;100997.03;4972199;28;20110;-78
2023/08/09 06:55:02;;;;;;;8.02;2.35;;;;;;;22.80;55.03;100990.19;4972426;28;20037;-78
2023/08/09 06:57:28;;;;;;;15.80;5.20;;;;;;;22.80;56.56;100981.97;4972343;28;20514;-79
2023/08/09 06:59:54;;;;;;;8.88;2.13;;;;;;;22.89;52.95;100964.34;4973244;28;20057;-78
2023/08/09 07:02:20;;;;;;;24.35;2.75;;;;;;;22.96;54.05;100972.63;4973663;28;20026;-81
2023/08/09 07:04:46;;;;;;;24.42;8.85;;;;;;;23.06;56.92;100984.97;4973219;28;20030;-78
2023/08/09 07:07:12;;;;;;;32.30;6.43;;;;;;;22.97;54.58;100977.06;4988051;28;20023;-78
2023/08/09 07:09:38;;;;;;;12.32;2.05;;;;;;;23.15;51.35;100989.25;4973523;28;20395;-80
2023/08/09 07:12:04;;;;;;;4.30;1.90;;;;;;;23.14;51.83;100970.25;4973677;28;20030;-79
2023/08/09 07:14:30;;;;;;;4.35;1.75;;;;;;;22.87;52.42;100946.38;4952127;29;20046;-79
2023/08/09 07:16:55;;;;;;;16.27;5.07;;;;;;;22.99;52.23;100969.50;4953064;29;20035;-79
2023/08/09 07:19:23;;;;;;;12.80;3.88;;;;;;;23.16;53.17;100976.38;4952569;28;20066;-79
2023/08/09 07:21:52;;;;;;;19.85;6.75;;;;;;;23.31;53.50;100977.16;4936858;29;20119;-80
2023/08/09 07:24:19;;;;;;;16.77;4.45;;;;;;;23.28;51.63;100961.06;4953032;29;20053;-79
2023/08/09 07:26:54;;;;;;;10.85;4.38;;;;;;;23.56;49.14;100972.94;4937665;29;20031;-79
2023/08/09 07:29:27;;;;;;;6.03;1.92;;;;;;;23.39;49.29;100952.34;4955835;28;20043;-78
2023/08/09 07:32:00;;;;;;;4.55;1.98;;;;;;;23.44;51.07;100947.09;4965577;28;20058;-79
2023/08/09 07:34:28;;;;;;;11.13;2.20;;;;;;;23.53;51.25;100972.50;4962402;28;20190;-80
2023/08/09 07:36:57;;;;;;;7.75;2.45;;;;;;;23.44;48.79;100944.34;4955284;28;20122;-81
2023/08/09 07:39:26;;;;;;;5.00;1.85;;;;;;;23.73;48.93;100971.56;4957178;28;20057;-81
2023/08/09 07:41:55;;;;;;;5.88;1.77;;;;;;;23.71;50.02;100962.69;4954677;29;20440;-82
2023/08/09 07:44:33;;;;;;;4.32;2.90;;;;;;;23.80;49.90;100972.47;4957280;28;20039;-86
2023/08/09 07:47:02;;;;;;;6.18;1.75;;;;;;;23.73;50.09;100966.06;4973919;28;20034;-81
2023/08/09 07:49:28;;;;;;;11.32;2.47;;;;;;;23.81;49.00;100963.19;4974213;28;20035;-82
2023/08/09 07:51:54;;;;;;;2.80;1.23;;;;;;;23.72;49.49;100944.31;4974074;28;20023;-84
2023/08/09 07:54:19;;;;;;;10.32;3.10;;;;;;;23.61;49.84;100934.72;4972537;28;20026;-83
2023/08/09 07:56:45;;;;;;;13.85;4.60;;;;;;;23.69;49.41;100926.34;4973501;28;20031;-83
2023/08/09 07:59:10;;;;;;;14.82;2.75;;;;;;;24.03;47.88;100949.34;4973090;28;20082;-85
2023/08/09 08:01:36;;;;;;;8.93;1.80;;;;;;;24.09;48.24;100943.03;4972576;28;20046;-85
2023/08/09 08:04:01;;;;;;;12.77;2.63;;;;;;;24.12;49.65;100937.16;4973543;28;20411;-84
2023/08/09 08:06:27;;;;;;;16.75;2.88;;;;;;;24.16;47.41;100954.91;4974403;28;20134;-85
2023/08/09 08:08:53;;;;;;;13.35;3.75;;;;;;;24.03;47.06;100921.84;4972860;28;20034;-85
2023/08/09 08:11:19;;;;;;;9.38;2.50;;;;;;;24.40;47.96;100951.63;4975607;28;20037;-85
2023/08/09 08:13:45;;;;;;;2.33;1.10;;;;;;;24.27;47.41;100922.19;4978512;28;20110;-86
2023/08/09 08:16:10;;;;;;;6.10;2.22;;;;;;;24.38;48.28;100938.09;4993439;28;20022;-85
2023/08/09 08:18:36;;;;;;;14.13;6.15;;;;;;;24.58;46.18;100945.53;4979436;28;20030;-86
2023/08/09 08:21:03;;;;;;;5.82;2.22;;;;;;;24.75;44.98;100961.44;4982263;28;20054;-86
2023/08/09 08:23:30;;;;;;;6.25;1.60;;;;;;;24.69;44.18;100937.53;4985289;28;20459;-85
2023/08/09 08:26:05;;;;;;;6.55;1.73;;;;;;;24.67;45.87;100925.88;4986005;28;20035;-85
2023/08/09 08:28:30;;;;;;;3.28;1.60;;;;;;;24.70;44.26;100941.97;4986942;28;20026;-87
2023/08/09 08:30:56;;;;;;;2.08;1.45;;;;;;;24.74;46.20;100932.22;4985500;28;20454;-86
2023/08/09 08:33:23;;;;;;;5.60;1.70;;;;;;;24.73;46.11;100925.03;4984588;28;20057;-87
2023/08/09 08:35:51;;;;;;;1.50;1.10;;;;;;;24.77;45.96;100922.69;4984703;28;20066;-87
2023/08/09 08:38:17;;;;;;;6.68;1.20;;;;;;;24.81;45.79;100922.13;4986791;28;20067;-86
2023/08/09 08:40:43;;;;;;;9.23;1.92;;;;;;;24.79;47.50;100924.22;4987438;28;20027;-89
2023/08/09 08:43:09;;;;;;;3.72;1.42;;;;;;;24.80;46.55;100914.88;4988133;28;20513;-89
2023/08/09 08:45:38;;;;;;;11.07;1.40;;;;;;;24.96;44.50;100915.53;4985543;28;20026;-87
2023/08/09 08:48:10;;;;;;;6.80;1.88;;;;;;;24.98;48.69;100916.22;4991424;28;20050;-89
2023/08/09 08:50:38;;;;;;;2.78;1.30;;;;;;;25.01;49.40;100915.78;4996591;28;20034;-89
2023/08/09 08:53:04;;;;;;;5.20;1.30;;;;;;;25.00;49.76;100919.59;4989347;28;20058;-89
2023/08/09 08:55:30;;;;;;;12.25;2.25;;;;;;;24.88;49.57;100878.94;4981633;28;20046;-89
2023/08/09 08:57:56;;;;;;;10.82;1.27;;;;;;;25.22;48.86;100908.16;4981107;28;20054;-88
2023/08/09 09:00:22;;;;;;;3.13;1.60;;;;;;;25.20;48.38;100893.72;4980465;28;20054;-89
2023/08/09 09:02:49;;;;;;;2.15;1.50;;;;;;;25.25;48.09;100895.84;4988259;28;20086;-88
2023/08/09 09:05:18;;;;;;;6.72;1.60;;;;;;;25.29;47.99;100886.09;4984035;28;20039;-89
2023/08/09 09:07:45;;;;;;;7.53;2.17;;;;;;;25.46;47.69;100892.84;4996646;28;20042;-89
2023/08/09 09:10:12;;;;;;;4.57;1.35;;;;;;;25.57;47.29;100883.94;4978579;28;20034;-90
2023/08/09 09:12:41;;;;;;;14.70;1.77;;;;;;;25.68;46.62;100880.53;4978645;28;20105;-89
2023/08/09 09:15:08;;;;;;;2.72;1.63;;;;;;;25.78;45.92;100885.56;4977807;28;20046;-90
2023/08/09 09:17:41;;;;;;;8.90;1.70;;;;;;;25.83;46.17;100869.25;4976611;28;20027;-89
2023/08/09 09:20:13;;;;;;;8.05;3.85;;;;;;;25.79;45.23;100845.94;4976407;28;20034;-91
2023/08/09 09:22:39;;;;;;;19.27;3.05;;;;;;;25.85;45.21;100869.84;4987566;28;20022;-90
2023/08/09 09:25:11;;;;;;;7.40;1.58;;;;;;;25.88;45.28;100867.53;4996638;28;20039;-87
2023/08/09 09:27:52;;;;;;;4.25;1.60;;;;;;;25.98;45.32;100867.06;5009633;28;20085;-89
2023/08/09 09:30:24;;;;;;;11.38;2.08;;;;;;;25.89;45.22;100846.31;4975595;28;20046;-89
2023/08/09 09:32:52;;;;;;;3.13;1.52;;;;;;;26.10;45.23;100869.97;4967704;29;20043;-88
2023/08/09 09:35:21;;;;;;;12.68;2.22;;;;;;;26.20;44.63;100873.97;4957866;29;20039;-89
2023/08/09 09:37:48;;;;;;;6.15;1.42;;;;;;;26.17;44.19;100857.03;4955496;29;20106;-90
2023/08/09 09:40:24;;;;;;;13.23;4.03;;;;;;;26.17;44.37;100852.34;4942598;29;20023;-90
2023/08/09 09:42:54;;;;;;;6.20;2.50;;;;;;;26.30;44.09;100863.28;4956952;29;20043;-88
2023/08/09 09:45:24;;;;;;;7.18;1.42;;;;;;;26.35;44.21;100865.41;4957506;29;20039;-90
2023/08/09 09:47:52;;;;;;;7.18;1.40;;;;;;;26.33;43.89;100850.97;4956859;29;20035;-91
2023/08/09 09:50:21;;;;;;;8.27;1.50;;;;;;;26.34;43.92;100864.53;4957397;29;20043;-89
2023/08/09 09:52:48;;;;;;;2.67;1.33;;;;;;;26.38;44.70;100851.16;4943189;29;20647;-90
2023/08/09 09:55:16;;;;;;;6.55;1.40;;;;;;;26.44;45.76;100853.88;4956781;28;20041;-91
2023/08/09 09:57:42;;;;;;;9.65;2.03;;;;;;;26.46;46.71;100839.84;4976521;28;20047;-91
2023/08/09 10:00:14;;;;;;;9.75;1.70;;;;;;;26.60;46.24;100854.41;4979004;28;20526;-89
2023/08/09 10:02:50;;;;;;;22.63;2.10;;;;;;;26.47;46.99;100833.25;4979061;28;20026;-90
2023/08/09 10:05:19;;;;;;;3.58;1.58;;;;;;;26.62;47.68;100852.25;4985114;28;20110;-91
2023/08/09 10:07:46;;;;;;;13.25;2.80;;;;;;;26.65;47.82;100843.53;4981467;28;20541;-91
2023/08/09 10:10:13;;;;;;;9.10;1.50;;;;;;;26.65;47.76;100840.75;4982530;28;20049;-90
2023/08/09 10:12:47;;;;;;;9.02;1.63;;;;;;;26.62;47.17;100842.06;4980125;28;20490;-93
2023/08/09 10:15:17;;;;;;;8.38;2.17;;;;;;;26.48;47.60;100824.75;4975539;28;20038;-90
2023/08/09 10:17:45;;;;;;;6.78;1.65;;;;;;;26.50;48.42;100835.59;4974981;28;20110;-89
2023/08/09 10:20:12;;;;;;;3.58;1.70;;;;;;;26.33;49.59;100817.88;4974876;28;20037;-90
2023/08/09 10:22:38;;;;;;;4.20;1.38;;;;;;;26.37;49.58;100825.47;4973693;28;20245;-90
2023/08/09 10:25:04;;;;;;;5.05;1.40;;;;;;;26.59;48.90;100839.75;4974390;28;20093;-89
2023/08/09 10:28:03;;;;;;;15.52;2.13;;;;;;;26.69;47.68;100834.59;4943024;28;20122;-91
2023/08/09 10:30:29;;;;;;;10.82;2.30;;;;;;;26.65;47.67;100830.56;4902754;29;20064;-90
2023/08/09 10:32:56;;;;;;;7.45;1.85;;;;;;;26.69;47.92;100834.59;4885313;29;20446;-91
2023/08/09 10:35:48;;;;;;;6.28;1.85;;;;;;;26.67;47.92;100839.47;4901255;29;20029;-90
2023/08/09 10:38:19;;;;;;;3.42;1.63;;;;;;;26.69;48.30;100834.59;4911172;29;20032;-90
2023/08/09 10:40:51;;;;;;;7.20;1.50;;;;;;;26.73;48.45;100823.91;4905233;29;20045;-91
2023/08/09 10:43:20;;;;;;;6.18;1.65;;;;;;;26.89;48.35;100828.91;4902768;29;20066;-91
2023/08/09 10:45:46;;;;;;;6.93;1.30;;;;;;;27.03;46.96;100833.25;4904876;29;20870;-90
2023/08/09 10:48:25;;;;;;;6.35;1.80;;;;;;;26.95;46.73;100826.09;4899678;29;20040;-89
2023/08/09 10:51:12;;;;;;;3.45;1.40;;;;;;;26.99;46.87;100815.44;4900630;29;20112;-89
2023/08/09 10:54:01;;;;;;;3.78;1.80;;;;;;;27.08;46.73;100821.50;4912265;29;20064;-90
2023/08/09 10:56:41;;;;;;;7.88;2.20;;;;;;;27.06;46.59;100835.56;4917002;29;20131;-91
2023/08/09 10:59:13;;;;;;;16.30;1.95;;;;;;;27.04;46.41;100827.50;4917119;29;20040;-87
2023/08/09 11:01:40;;;;;;;5.97;1.40;;;;;;;27.11;45.04;100823.81;4918096;29;20164;-91
2023/08/09 11:04:10;;;;;;;10.55;1.90;;;;;;;27.08;44.77;100810.47;4919335;29;20303;-91
2023/08/09 11:06:36;;;;;;;18.38;1.70;;;;;;;27.08;45.66;100816.84;4972680;28;20039;-91
2023/08/09 11:09:11;;;;;;;6.90;2.03;;;;;;;27.15;45.76;100814.84;4979237;28;20037;-90
2023/08/09 11:11:39;;;;;;;6.50;1.45;;;;;;;27.18;46.37;100816.31;4976996;28;20070;-91
2023/08/09 11:14:04;;;;;;;3.88;1.38;;;;;;;27.14;46.34;100810.41;4979170;28;20093;-92
2023/08/09 11:16:30;;;;;;;2.88;1.00;;;;;;;27.11;46.07;100812.78;4976824;28;20023;-91
2023/08/09 11:19:00;;;;;;;4.68;1.58;;;;;;;27.00;44.57;100804.16;4979526;28;20030;-91
2023/08/09 11:21:26;;;;;;;3.85;1.40;;;;;;;27.02;45.51;100807.56;4978059;28;20042;-90
2023/08/09 11:23:58;;;;;;;4.10;1.83;;;;;;;27.04;46.10;100804.53;4977009;28;20038;-91